createdAt,value
2018-05-31T00:00:45.964Z,41.60
2018-05-31T00:01:45.991Z,41.60
2018-05-31T00:02:46.080Z,41.96
2018-05-31T00:03:46.022Z,42.05
2018-05-31T00:04:46.035Z,42.05
2018-05-31T00:05:46.046Z,41.86
2018-05-31T00:06:46.030Z,43.49
2018-05-31T00:07:46.148Z,43.20
2018-05-31T00:08:46.083Z,43.59
2018-05-31T00:09:46.095Z,44.06
2018-05-31T00:10:46.113Z,44.16
2018-05-31T00:11:46.114Z,44.26
2018-05-31T00:12:46.121Z,43.77
2018-05-31T00:13:46.122Z,43.39
2018-05-31T00:14:46.137Z,43.30
2018-05-31T00:15:46.148Z,43.59
2018-05-31T00:16:46.164Z,43.30
2018-05-31T00:17:46.277Z,43.30
2018-05-31T00:18:46.187Z,43.20
2018-05-31T00:19:46.225Z,43.49
2018-05-31T00:20:46.240Z,43.30
2018-05-31T00:21:46.224Z,44.73
2018-05-31T00:22:46.353Z,45.57
2018-05-31T00:23:46.257Z,46.15
2018-05-31T00:24:46.266Z,45.67
2018-05-31T00:25:46.304Z,45.67
2018-05-31T00:26:46.317Z,46.05
2018-05-31T00:27:46.305Z,45.67
2018-05-31T00:28:46.343Z,45.29
2018-05-31T00:29:46.327Z,45.67
2018-05-31T00:30:46.353Z,45.38
2018-05-31T00:31:46.362Z,45.57
2018-05-31T00:32:46.469Z,45.67
2018-05-31T00:33:46.404Z,46.15
2018-05-31T00:34:46.403Z,46.25
2018-05-31T00:35:46.407Z,46.25
2018-05-31T00:36:46.443Z,47.49
2018-05-31T00:37:46.427Z,47.68
2018-05-31T00:38:46.451Z,47.68
2018-05-31T00:39:46.457Z,47.68
2018-05-31T00:40:46.498Z,47.78
2018-05-31T00:41:46.482Z,46.82
2018-05-31T00:42:46.495Z,46.91
2018-05-31T00:43:46.504Z,47.58
2018-05-31T00:44:46.529Z,47.49
2018-05-31T00:45:46.533Z,47.20
2018-05-31T00:46:46.567Z,47.20
2018-05-31T00:47:46.652Z,47.30
2018-05-31T00:48:46.568Z,46.91
2018-05-31T00:49:46.607Z,47.11
2018-05-31T00:50:46.606Z,46.53
2018-05-31T00:51:46.604Z,46.15
2018-05-31T00:52:46.646Z,46.25
2018-05-31T00:53:46.658Z,47.11
2018-05-31T00:54:46.642Z,46.53
2018-05-31T00:55:46.669Z,46.15
2018-05-31T00:56:46.697Z,46.15
2018-05-31T00:57:46.706Z,47.68
2018-05-31T00:58:46.693Z,47.78
2018-05-31T00:59:46.705Z,47.47
2018-05-31T01:00:46.744Z,47.68
2018-05-31T01:01:46.762Z,47.56
2018-05-31T01:02:46.769Z,47.66
2018-05-31T01:03:46.755Z,47.18
2018-05-31T01:04:46.765Z,47.37
2018-05-31T01:05:46.797Z,46.89
2018-05-31T01:06:46.792Z,49.19
2018-05-31T01:07:46.831Z,49.95
2018-05-31T01:08:46.818Z,49.86
2018-05-31T01:09:46.857Z,49.95
2018-05-31T01:10:46.837Z,50.24
2018-05-31T01:11:46.851Z,49.86
2018-05-31T01:12:46.866Z,49.00
2018-05-31T01:13:46.880Z,49.57
2018-05-31T01:14:46.893Z,48.80
2018-05-31T01:15:46.906Z,48.42
2018-05-31T01:16:46.925Z,48.23
2018-05-31T01:17:47.041Z,48.42
2018-05-31T01:18:46.943Z,48.90
2018-05-31T01:19:46.952Z,49.38
2018-05-31T01:20:46.966Z,49.76
2018-05-31T01:21:46.979Z,50.72
2018-05-31T01:22:46.990Z,51.20
2018-05-31T01:23:47.003Z,52.06
2018-05-31T01:24:47.018Z,51.68
2018-05-31T01:25:47.024Z,52.15
2018-05-31T01:26:47.067Z,52.63
2018-05-31T01:27:47.165Z,52.92
2018-05-31T01:28:47.068Z,52.92
2018-05-31T01:29:47.076Z,52.73
2018-05-31T01:30:47.088Z,52.92
2018-05-31T01:31:47.130Z,52.92
2018-05-31T01:32:47.217Z,52.54
2018-05-31T01:33:47.151Z,52.92
2018-05-31T01:34:47.154Z,52.54
2018-05-31T01:35:47.178Z,53.02
2018-05-31T01:36:47.177Z,53.88
2018-05-31T01:37:47.175Z,54.45
2018-05-31T01:38:47.216Z,54.57
2018-05-31T01:39:47.203Z,54.16
2018-05-31T01:40:47.216Z,53.91
2018-05-31T01:41:47.252Z,53.52
2018-05-31T01:42:47.265Z,53.62
2018-05-31T01:43:47.250Z,53.14
2018-05-31T01:44:47.264Z,53.23
2018-05-31T01:45:47.275Z,53.04
2018-05-31T01:46:47.298Z,52.85
2018-05-31T01:47:47.476Z,52.85
2018-05-31T01:48:47.318Z,52.66
2018-05-31T01:49:47.323Z,53.04
2018-05-31T01:50:47.363Z,53.04
2018-05-31T01:51:47.377Z,53.04
2018-05-31T01:52:47.390Z,52.85
2018-05-31T01:53:47.397Z,52.66
2018-05-31T01:54:47.380Z,52.95
2018-05-31T01:55:47.392Z,52.66
2018-05-31T01:56:47.412Z,52.85
2018-05-31T01:57:47.438Z,52.66
2018-05-31T01:58:47.464Z,52.56
2018-05-31T01:59:47.446Z,52.85
2018-05-31T02:00:47.491Z,53.04
2018-05-31T02:01:47.500Z,53.42
2018-05-31T02:02:47.483Z,53.52
2018-05-31T02:03:47.498Z,53.52
2018-05-31T02:04:47.536Z,53.33
2018-05-31T02:05:47.521Z,53.62
2018-05-31T02:06:47.533Z,53.62
2018-05-31T02:07:47.572Z,52.95
2018-05-31T02:08:47.586Z,52.75
2018-05-31T02:09:47.595Z,53.23
2018-05-31T02:10:47.584Z,53.62
2018-05-31T02:11:47.679Z,54.00
2018-05-31T02:12:47.662Z,53.91
2018-05-31T02:13:47.701Z,53.91
2018-05-31T02:14:47.693Z,54.19
2018-05-31T02:15:47.728Z,54.28
2018-05-31T02:16:47.739Z,54.19
2018-05-31T02:17:47.874Z,54.19
2018-05-31T02:18:47.739Z,54.96
2018-05-31T02:19:47.749Z,54.77
2018-05-31T02:20:47.781Z,54.67
2018-05-31T02:21:47.717Z,54.28
2018-05-31T02:22:47.828Z,55.63
2018-05-31T02:23:47.745Z,55.73
2018-05-31T02:24:47.784Z,55.82
2018-05-31T02:25:47.769Z,55.73
2018-05-31T02:26:47.782Z,55.53
2018-05-31T02:27:47.958Z,55.24
2018-05-31T02:28:47.832Z,54.19
2018-05-31T02:29:47.815Z,55.24
2018-05-31T02:30:47.854Z,55.44
2018-05-31T02:31:47.867Z,55.34
2018-05-31T02:32:47.857Z,55.34
2018-05-31T02:33:47.870Z,55.91
2018-05-31T02:34:47.908Z,55.44
2018-05-31T02:35:47.890Z,55.05
2018-05-31T02:36:47.908Z,55.24
2018-05-31T02:37:47.941Z,55.44
2018-05-31T02:38:47.925Z,55.82
2018-05-31T02:39:47.950Z,55.63
2018-05-31T02:40:47.979Z,55.53
2018-05-31T02:41:47.966Z,55.63
2018-05-31T02:42:47.977Z,55.82
2018-05-31T02:43:48.136Z,55.73
2018-05-31T02:44:48.000Z,55.44
2018-05-31T02:45:48.014Z,55.53
2018-05-31T02:46:48.049Z,55.79
2018-05-31T02:47:48.038Z,55.44
2018-05-31T02:48:48.203Z,55.24
2018-05-31T02:49:48.058Z,55.31
2018-05-31T02:50:48.101Z,55.51
2018-05-31T02:51:48.085Z,55.12
2018-05-31T02:52:48.101Z,55.51
2018-05-31T02:53:48.109Z,55.60
2018-05-31T02:54:48.120Z,56.68
2018-05-31T02:55:48.134Z,55.91
2018-05-31T02:56:48.172Z,55.98
2018-05-31T02:57:48.152Z,55.91
2018-05-31T02:58:48.335Z,56.17
2018-05-31T02:59:48.186Z,56.10
2018-05-31T03:00:48.223Z,56.39
2018-05-31T03:01:48.207Z,57.04
2018-05-31T03:02:48.222Z,57.61
2018-05-31T03:03:48.233Z,57.13
2018-05-31T03:04:48.254Z,57.51
2018-05-31T03:05:48.280Z,57.42
2018-05-31T03:06:48.293Z,57.99
2018-05-31T03:07:48.322Z,57.90
2018-05-31T03:08:48.443Z,57.99
2018-05-31T03:09:48.329Z,58.28
2018-05-31T03:10:48.346Z,58.09
2018-05-31T03:11:48.358Z,57.32
2018-05-31T03:12:48.366Z,56.75
2018-05-31T03:13:48.528Z,57.42
2018-05-31T03:14:48.372Z,57.87
2018-05-31T03:15:48.389Z,58.34
2018-05-31T03:16:48.389Z,59.40
2018-05-31T03:17:48.404Z,59.01
2018-05-31T03:18:48.591Z,59.78
2018-05-31T03:19:48.429Z,60.16
2018-05-31T03:20:48.449Z,61.57
2018-05-31T03:21:48.443Z,61.47
2018-05-31T03:22:48.463Z,61.95
2018-05-31T03:23:48.475Z,63.48
2018-05-31T03:24:48.498Z,63.29
2018-05-31T03:25:48.512Z,63.48
2018-05-31T03:26:48.509Z,64.82
2018-05-31T03:27:48.524Z,65.11
2018-05-31T03:28:48.712Z,65.30
2018-05-31T03:29:48.570Z,65.20
2018-05-31T03:30:48.568Z,65.77
2018-05-31T03:31:48.573Z,64.72
2018-05-31T03:32:48.583Z,63.76
2018-05-31T03:33:48.593Z,63.57
2018-05-31T03:34:48.603Z,63.19
2018-05-31T03:35:48.617Z,63.57
2018-05-31T03:36:48.658Z,64.91
2018-05-31T03:37:48.640Z,65.77
2018-05-31T03:38:48.652Z,65.97
2018-05-31T03:39:48.673Z,65.11
2018-05-31T03:40:48.700Z,65.87
2018-05-31T03:41:48.687Z,65.01
2018-05-31T03:42:48.697Z,65.68
2018-05-31T03:43:48.711Z,65.77
2018-05-31T03:44:48.735Z,66.73
2018-05-31T03:45:48.760Z,66.16
2018-05-31T03:46:48.743Z,65.97
2018-05-31T03:47:48.753Z,66.06
2018-05-31T03:48:48.767Z,65.87
2018-05-31T03:49:48.780Z,66.16
2018-05-31T03:50:48.818Z,66.25
2018-05-31T03:51:48.802Z,66.25
2018-05-31T03:52:48.839Z,66.63
2018-05-31T03:53:49.003Z,66.50
2018-05-31T03:54:48.864Z,66.73
2018-05-31T03:55:48.850Z,66.83
2018-05-31T03:56:48.872Z,67.21
2018-05-31T03:57:48.870Z,67.27
2018-05-31T03:58:48.908Z,66.89
2018-05-31T03:59:48.896Z,68.32
2018-05-31T04:00:48.931Z,69.47
2018-05-31T04:01:48.930Z,69.18
2018-05-31T04:02:48.928Z,68.51
2018-05-31T04:03:48.970Z,68.84
2018-05-31T04:04:48.980Z,69.37
2018-05-31T04:05:48.989Z,69.85
2018-05-31T04:06:48.975Z,69.27
2018-05-31T04:07:49.015Z,67.84
2018-05-31T04:08:48.998Z,66.79
2018-05-31T04:09:49.187Z,65.84
2018-05-31T04:10:49.051Z,65.07
2018-05-31T04:11:49.062Z,64.59
2018-05-31T04:12:49.072Z,64.02
2018-05-31T04:13:49.081Z,64.88
2018-05-31T04:14:49.255Z,64.69
2018-05-31T04:15:49.108Z,65.26
2018-05-31T04:16:49.096Z,65.36
2018-05-31T04:17:49.185Z,65.07
2018-05-31T04:18:49.169Z,65.36
2018-05-31T04:19:49.206Z,66.03
2018-05-31T04:20:49.196Z,66.41
2018-05-31T04:21:49.161Z,66.22
2018-05-31T04:22:49.145Z,66.03
2018-05-31T04:23:49.159Z,66.13
2018-05-31T04:24:49.317Z,65.36
2018-05-31T04:25:49.181Z,66.99
2018-05-31T04:26:49.259Z,70.14
2018-05-31T04:27:49.242Z,69.47
2018-05-31T04:28:49.243Z,69.66
2018-05-31T04:29:49.421Z,70.81
2018-05-31T04:30:49.265Z,71.57
2018-05-31T04:31:49.273Z,71.19
2018-05-31T04:32:49.269Z,70.90
2018-05-31T04:33:49.273Z,69.47
2018-05-31T04:34:49.431Z,68.61
2018-05-31T04:35:49.301Z,69.27
2018-05-31T04:36:49.363Z,70.90
2018-05-31T04:37:49.344Z,73.00
2018-05-31T04:38:49.340Z,72.62
2018-05-31T04:39:49.514Z,71.95
2018-05-31T04:40:49.353Z,71.09
2018-05-31T04:41:49.399Z,71.00
2018-05-31T04:42:49.400Z,70.96
2018-05-31T04:43:49.386Z,70.14
2018-05-31T04:44:49.613Z,72.87
2018-05-31T04:45:49.405Z,74.59
2018-05-31T04:46:49.418Z,75.16
2018-05-31T04:47:49.439Z,74.98
2018-05-31T04:48:49.441Z,74.88
2018-05-31T04:49:49.602Z,74.21
2018-05-31T04:50:49.511Z,74.69
2018-05-31T04:51:49.473Z,74.78
2018-05-31T04:52:49.492Z,75.01
2018-05-31T04:53:49.496Z,74.02
2018-05-31T04:54:49.517Z,73.35
2018-05-31T04:55:49.525Z,73.73
2018-05-31T04:56:49.574Z,74.40
2018-05-31T04:57:49.557Z,75.35
2018-05-31T04:58:49.565Z,74.02
2018-05-31T04:59:49.713Z,73.63
2018-05-31T05:00:49.618Z,72.78
2018-05-31T05:01:49.592Z,72.68
2018-05-31T05:02:49.607Z,71.82
2018-05-31T05:03:49.632Z,71.92
2018-05-31T05:04:49.643Z,71.72
2018-05-31T05:05:49.654Z,72.20
2018-05-31T05:06:49.708Z,74.02
2018-05-31T05:07:49.691Z,75.07
2018-05-31T05:08:49.733Z,75.16
2018-05-31T05:09:49.894Z,76.21
2018-05-31T05:10:49.688Z,76.12
2018-05-31T05:11:49.698Z,76.40
2018-05-31T05:12:49.749Z,76.40
2018-05-31T05:13:49.785Z,76.60
2018-05-31T05:14:49.754Z,76.12
2018-05-31T05:15:49.766Z,75.74
2018-05-31T05:16:49.757Z,75.74
2018-05-31T05:17:49.819Z,77.65
2018-05-31T05:18:49.824Z,78.22
2018-05-31T05:19:49.977Z,78.99
2018-05-31T05:20:49.798Z,79.36
2018-05-31T05:21:49.847Z,79.56
2018-05-31T05:22:49.834Z,78.41
2018-05-31T05:23:49.854Z,77.74
2018-05-31T05:24:49.838Z,75.45
2018-05-31T05:25:49.893Z,74.69
2018-05-31T05:26:49.859Z,73.54
2018-05-31T05:27:49.942Z,72.58
2018-05-31T05:28:49.885Z,72.20
2018-05-31T05:29:49.904Z,72.68
2018-05-31T05:30:50.098Z,72.68
2018-05-31T05:31:49.917Z,72.30
2018-05-31T05:32:49.954Z,72.39
2018-05-31T05:33:50.008Z,72.78
2018-05-31T05:34:49.975Z,72.78
2018-05-31T05:35:49.962Z,72.68
2018-05-31T05:36:50.002Z,75.79
2018-05-31T05:37:49.982Z,77.89
2018-05-31T05:38:50.053Z,79.75
2018-05-31T05:39:50.013Z,79.61
2018-05-31T05:40:50.193Z,79.99
2018-05-31T05:41:50.039Z,79.52
2018-05-31T05:42:50.040Z,79.99
2018-05-31T05:43:50.092Z,79.04
2018-05-31T05:44:50.114Z,78.75
2018-05-31T05:45:50.221Z,78.28
2018-05-31T05:46:50.082Z,77.42
2018-05-31T05:47:50.135Z,79.27
2018-05-31T05:48:50.109Z,81.09
2018-05-31T05:49:50.118Z,81.56
2018-05-31T05:50:50.197Z,82.48
2018-05-31T05:51:50.136Z,81.81
2018-05-31T05:52:50.151Z,82.00
2018-05-31T05:53:50.201Z,81.43
2018-05-31T05:54:50.240Z,81.18
2018-05-31T05:55:50.335Z,81.09
2018-05-31T05:56:50.194Z,81.56
2018-05-31T05:57:50.213Z,82.52
2018-05-31T05:58:50.227Z,82.23
2018-05-31T05:59:50.240Z,82.61
2018-05-31T06:00:50.436Z,82.04
2018-05-31T06:01:50.352Z,81.95
2018-05-31T06:02:50.254Z,82.61
2018-05-31T06:03:50.266Z,82.04
2018-05-31T06:04:50.292Z,81.18
2018-05-31T06:05:50.290Z,81.47
2018-05-31T06:06:50.326Z,80.90
2018-05-31T06:07:50.383Z,79.98
2018-05-31T06:08:50.327Z,79.46
2018-05-31T06:09:50.412Z,79.27
2018-05-31T06:10:50.532Z,79.31
2018-05-31T06:11:50.381Z,79.31
2018-05-31T06:12:50.394Z,78.93
2018-05-31T06:13:50.379Z,78.36
2018-05-31T06:14:50.391Z,78.93
2018-05-31T06:15:50.551Z,78.45
2018-05-31T06:16:50.456Z,78.07
2018-05-31T06:17:50.424Z,77.97
2018-05-31T06:18:50.437Z,77.30
2018-05-31T06:19:50.504Z,77.30
2018-05-31T06:20:50.626Z,76.73
2018-05-31T06:21:50.508Z,76.82
2018-05-31T06:22:50.478Z,76.82
2018-05-31T06:23:50.513Z,75.87
2018-05-31T06:24:50.524Z,75.30
2018-05-31T06:25:50.535Z,75.96
2018-05-31T06:26:50.547Z,76.64
2018-05-31T06:27:50.535Z,77.40
2018-05-31T06:28:50.613Z,77.21
2018-05-31T06:29:50.551Z,77.59
2018-05-31T06:30:50.719Z,77.59
2018-05-31T06:31:50.579Z,77.69
2018-05-31T06:32:50.614Z,77.30
2018-05-31T06:33:50.601Z,76.92
2018-05-31T06:34:50.655Z,76.16
2018-05-31T06:35:50.842Z,76.16
2018-05-31T06:36:50.641Z,76.73
2018-05-31T06:37:50.645Z,76.64
2018-05-31T06:38:50.725Z,76.45
2018-05-31T06:39:50.666Z,77.21
2018-05-31T06:40:50.719Z,77.45
2018-05-31T06:41:50.716Z,77.74
2018-05-31T06:42:50.771Z,77.69
2018-05-31T06:43:50.727Z,77.50
2018-05-31T06:44:50.731Z,77.01
2018-05-31T06:45:50.748Z,76.88
2018-05-31T06:46:50.785Z,77.17
2018-05-31T06:47:50.825Z,77.45
2018-05-31T06:48:50.794Z,77.45
2018-05-31T06:49:50.792Z,77.74
2018-05-31T06:50:50.962Z,77.45
2018-05-31T06:51:50.827Z,77.74
2018-05-31T06:52:50.848Z,78.22
2018-05-31T06:53:50.827Z,78.60
2018-05-31T06:54:50.875Z,78.89
2018-05-31T06:55:50.871Z,78.41
2018-05-31T06:56:50.856Z,78.89
2018-05-31T06:57:50.932Z,79.36
2018-05-31T06:58:50.903Z,78.99
2018-05-31T06:59:50.955Z,78.60
2018-05-31T07:00:51.085Z,78.89
2018-05-31T07:01:50.907Z,79.36
2018-05-31T07:02:50.961Z,79.46
2018-05-31T07:03:50.979Z,79.17
2018-05-31T07:04:50.997Z,79.56
2018-05-31T07:05:51.109Z,79.56
2018-05-31T07:06:50.973Z,79.56
2018-05-31T07:07:50.975Z,79.17
2018-05-31T07:08:51.040Z,79.36
2018-05-31T07:09:50.997Z,79.56
2018-05-31T07:10:51.033Z,79.85
2018-05-31T07:11:51.045Z,80.22
2018-05-31T07:12:51.056Z,80.04
2018-05-31T07:13:51.081Z,80.41
2018-05-31T07:14:51.095Z,79.36
2018-05-31T07:15:51.279Z,79.56
2018-05-31T07:16:51.139Z,79.17
2018-05-31T07:17:51.090Z,79.65
2018-05-31T07:18:51.117Z,80.04
2018-05-31T07:19:51.129Z,79.56
2018-05-31T07:20:51.334Z,80.13
2018-05-31T07:21:51.127Z,79.56
2018-05-31T07:22:51.161Z,79.08
2018-05-31T07:23:51.147Z,80.32
2018-05-31T07:24:51.167Z,81.47
2018-05-31T07:25:51.345Z,81.37
2018-05-31T07:26:51.208Z,81.47
2018-05-31T07:27:51.217Z,82.42
2018-05-31T07:28:51.227Z,81.95
2018-05-31T07:29:51.214Z,82.14
2018-05-31T07:30:51.432Z,82.14
2018-05-31T07:31:51.233Z,82.14
2018-05-31T07:32:51.269Z,81.85
2018-05-31T07:33:51.325Z,81.18
2018-05-31T07:34:51.282Z,80.70
2018-05-31T07:35:51.497Z,80.51
2018-05-31T07:36:51.290Z,80.41
2018-05-31T07:37:51.340Z,79.75
2018-05-31T07:38:51.313Z,79.65
2018-05-31T07:39:51.351Z,79.46
2018-05-31T07:40:51.527Z,79.36
2018-05-31T07:41:51.356Z,79.36
2018-05-31T07:42:51.378Z,80.04
2018-05-31T07:43:51.434Z,79.75
2018-05-31T07:44:51.402Z,79.46
2018-05-31T07:45:51.535Z,79.27
2018-05-31T07:46:51.420Z,78.60
2018-05-31T07:47:51.434Z,78.31
2018-05-31T07:48:51.445Z,79.65
2018-05-31T07:49:51.429Z,80.28
2018-05-31T07:50:51.588Z,80.38
2018-05-31T07:51:51.466Z,81.37
2018-05-31T07:52:51.506Z,81.85
2018-05-31T07:53:51.470Z,81.18
2018-05-31T07:54:51.480Z,81.62
2018-05-31T07:55:51.710Z,82.86
2018-05-31T07:56:51.504Z,82.86
2018-05-31T07:57:51.513Z,83.00
2018-05-31T07:58:51.567Z,83.05
2018-05-31T07:59:51.538Z,82.86
2018-05-31T08:00:51.723Z,84.00
2018-05-31T08:01:51.568Z,84.00
2018-05-31T08:02:51.595Z,83.53
2018-05-31T08:03:51.580Z,83.62
2018-05-31T08:04:51.632Z,82.67
2018-05-31T08:05:51.751Z,82.09
2018-05-31T08:06:51.624Z,82.00
2018-05-31T08:07:51.666Z,82.19
2018-05-31T08:08:51.674Z,83.24
2018-05-31T08:09:51.667Z,84.00
2018-05-31T08:10:51.815Z,84.00
2018-05-31T08:11:51.690Z,84.39
2018-05-31T08:12:51.679Z,84.00
2018-05-31T08:13:51.683Z,84.39
2018-05-31T08:14:51.749Z,84.67
2018-05-31T08:15:51.749Z,85.15
2018-05-31T08:16:51.896Z,85.63
2018-05-31T08:17:51.799Z,84.96
2018-05-31T08:18:51.741Z,86.87
2018-05-31T08:19:51.764Z,86.96
2018-05-31T08:20:51.762Z,87.25
2018-05-31T08:21:51.817Z,87.73
2018-05-31T08:22:51.839Z,86.96
2018-05-31T08:23:51.794Z,86.77
2018-05-31T08:24:51.846Z,86.96
2018-05-31T08:25:51.842Z,87.35
2018-05-31T08:26:51.850Z,86.68
2018-05-31T08:27:52.057Z,84.48
2018-05-31T08:28:51.849Z,82.09
2018-05-31T08:29:51.867Z,81.71
2018-05-31T08:30:51.908Z,81.71
2018-05-31T08:31:51.891Z,81.90
2018-05-31T08:32:51.892Z,81.43
2018-05-31T08:33:51.928Z,81.71
2018-05-31T08:34:51.911Z,81.71
2018-05-31T08:35:51.949Z,82.76
2018-05-31T08:36:51.976Z,84.06
2018-05-31T08:37:52.090Z,84.34
2018-05-31T08:38:51.999Z,85.01
2018-05-31T08:39:51.962Z,85.39
2018-05-31T08:40:51.974Z,86.06
2018-05-31T08:41:52.037Z,85.49
2018-05-31T08:42:51.993Z,88.20
2018-05-31T08:43:52.034Z,89.40
2018-05-31T08:44:52.058Z,89.97
2018-05-31T08:45:52.064Z,90.21
2018-05-31T08:46:52.038Z,90.31
2018-05-31T08:47:52.194Z,88.97
2018-05-31T08:48:52.060Z,88.97
2018-05-31T08:49:52.095Z,89.45
2018-05-31T08:50:52.106Z,90.59
2018-05-31T08:51:52.143Z,92.12
2018-05-31T08:52:52.249Z,92.50
2018-05-31T08:53:52.149Z,92.12
2018-05-31T08:54:52.125Z,92.31
2018-05-31T08:55:52.132Z,92.50
2018-05-31T08:56:52.184Z,92.69
2018-05-31T08:57:52.344Z,92.31
2018-05-31T08:58:52.190Z,92.69
2018-05-31T08:59:52.241Z,92.50
2018-05-31T09:00:52.184Z,91.93
2018-05-31T09:01:52.196Z,92.31
2018-05-31T09:02:52.415Z,92.69
2018-05-31T09:03:52.240Z,92.79
2018-05-31T09:04:52.294Z,92.69
2018-05-31T09:05:52.238Z,92.69
2018-05-31T09:06:52.251Z,92.69
2018-05-31T09:07:52.288Z,93.36
2018-05-31T09:08:52.322Z,93.36
2018-05-31T09:09:52.322Z,93.36
2018-05-31T09:10:52.295Z,93.55
2018-05-31T09:11:52.325Z,93.46
2018-05-31T09:12:52.487Z,93.17
2018-05-31T09:13:52.320Z,93.36
2018-05-31T09:14:52.336Z,93.36
2018-05-31T09:15:52.342Z,92.31
2018-05-31T09:16:52.395Z,91.93
2018-05-31T09:17:52.516Z,91.55
2018-05-31T09:18:52.396Z,92.21
2018-05-31T09:19:52.417Z,91.83
2018-05-31T09:20:52.395Z,91.36
2018-05-31T09:21:52.407Z,91.36
2018-05-31T09:22:52.615Z,91.55
2018-05-31T09:23:52.469Z,91.16
2018-05-31T09:24:52.435Z,91.36
2018-05-31T09:25:52.452Z,90.78
2018-05-31T09:26:52.458Z,90.88
2018-05-31T09:27:52.647Z,90.50
2018-05-31T09:28:52.483Z,90.88
2018-05-31T09:29:52.488Z,91.07
2018-05-31T09:30:52.501Z,90.69
2018-05-31T09:31:52.540Z,90.40
2018-05-31T09:32:52.693Z,89.83
2018-05-31T09:33:52.541Z,90.21
2018-05-31T09:34:52.598Z,89.45
2018-05-31T09:35:52.550Z,89.35
2018-05-31T09:36:52.619Z,89.45
2018-05-31T09:37:52.767Z,89.59
2018-05-31T09:38:52.587Z,89.83
2018-05-31T09:39:52.596Z,91.36
2018-05-31T09:40:52.606Z,90.88
2018-05-31T09:41:52.644Z,90.21
2018-05-31T09:42:52.786Z,90.11
2018-05-31T09:43:52.710Z,89.73
2018-05-31T09:44:52.646Z,90.31
2018-05-31T09:45:52.669Z,90.35
2018-05-31T09:46:52.741Z,90.88
2018-05-31T09:47:52.704Z,90.54
2018-05-31T09:48:52.869Z,90.11
2018-05-31T09:49:52.706Z,90.16
2018-05-31T09:50:52.714Z,90.31
2018-05-31T09:51:52.753Z,90.11
2018-05-31T09:52:52.750Z,89.30
2018-05-31T09:53:52.798Z,89.01
2018-05-31T09:54:52.753Z,89.68
2018-05-31T09:55:52.809Z,89.39
2018-05-31T09:56:52.805Z,88.82
2018-05-31T09:57:52.830Z,89.30
2018-05-31T09:58:52.843Z,89.20
2018-05-31T09:59:52.849Z,89.59
2018-05-31T10:00:52.848Z,89.01
2018-05-31T10:01:52.828Z,88.44
2018-05-31T10:02:52.849Z,87.29
2018-05-31T10:03:52.863Z,87.29
2018-05-31T10:04:53.057Z,86.91
2018-05-31T10:05:52.920Z,86.43
2018-05-31T10:06:52.889Z,86.82
2018-05-31T10:07:52.907Z,86.91
2018-05-31T10:08:52.962Z,86.72
2018-05-31T10:09:52.917Z,86.34
2018-05-31T10:10:52.932Z,85.86
2018-05-31T10:11:52.993Z,85.67
2018-05-31T10:12:52.978Z,85.00
2018-05-31T10:13:53.008Z,84.33
2018-05-31T10:14:53.127Z,84.28
2018-05-31T10:15:53.054Z,84.47
2018-05-31T10:16:52.991Z,83.99
2018-05-31T10:17:53.010Z,83.13
2018-05-31T10:18:53.019Z,83.13
2018-05-31T10:19:53.251Z,82.84
2018-05-31T10:20:53.070Z,83.33
2018-05-31T10:21:53.063Z,82.84
2018-05-31T10:22:53.092Z,82.08
2018-05-31T10:23:53.125Z,82.18
2018-05-31T10:24:53.197Z,81.79
2018-05-31T10:25:53.110Z,81.51
2018-05-31T10:26:53.135Z,81.13
2018-05-31T10:27:53.148Z,81.13
2018-05-31T10:28:53.132Z,81.22
2018-05-31T10:29:53.171Z,81.03
2018-05-31T10:30:53.157Z,81.84
2018-05-31T10:31:53.168Z,81.45
2018-05-31T10:32:53.190Z,81.36
2018-05-31T10:33:53.214Z,80.98
2018-05-31T10:34:53.204Z,80.59
2018-05-31T10:35:53.213Z,79.44
2018-05-31T10:36:53.223Z,79.16
2018-05-31T10:37:53.261Z,78.68
2018-05-31T10:38:53.292Z,77.92
2018-05-31T10:39:53.413Z,78.39
2018-05-31T10:40:53.316Z,78.87
2018-05-31T10:41:53.282Z,78.87
2018-05-31T10:42:53.364Z,78.78
2018-05-31T10:43:53.419Z,77.72
2018-05-31T10:44:53.493Z,77.34
2018-05-31T10:45:53.355Z,76.20
2018-05-31T10:46:53.392Z,74.80
2018-05-31T10:47:53.356Z,74.41
2018-05-31T10:48:53.409Z,73.84
2018-05-31T10:49:53.380Z,73.46
2018-05-31T10:50:53.451Z,73.17
2018-05-31T10:51:53.429Z,73.75
2018-05-31T10:52:53.457Z,72.60
2018-05-31T10:53:53.465Z,71.26
2018-05-31T10:54:53.540Z,69.64
2018-05-31T10:55:53.480Z,69.64
2018-05-31T10:56:53.534Z,69.76
2018-05-31T10:57:53.517Z,69.57
2018-05-31T10:58:53.558Z,69.00
2018-05-31T10:59:53.677Z,68.42
2018-05-31T11:00:53.541Z,68.33
2018-05-31T11:01:53.524Z,68.33
2018-05-31T11:02:53.566Z,69.19
2018-05-31T11:03:53.578Z,69.09
2018-05-31T11:04:53.714Z,68.23
2018-05-31T11:05:53.620Z,68.04
2018-05-31T11:06:53.597Z,67.76
2018-05-31T11:07:53.630Z,68.23
2018-05-31T11:08:53.614Z,67.56
2018-05-31T11:09:53.804Z,66.41
2018-05-31T11:10:53.672Z,67.08
2018-05-31T11:11:53.679Z,66.74
2018-05-31T11:12:53.692Z,65.78
2018-05-31T11:13:53.732Z,65.97
2018-05-31T11:14:53.757Z,66.35
2018-05-31T11:15:53.928Z,67.21
2018-05-31T11:16:53.743Z,65.97
2018-05-31T11:17:53.758Z,64.53
2018-05-31T11:18:53.772Z,64.09
2018-05-31T11:19:53.773Z,61.79
2018-05-31T11:20:53.843Z,62.26
2018-05-31T11:21:53.796Z,61.79
2018-05-31T11:22:53.799Z,61.69
2018-05-31T11:23:53.816Z,59.71
2018-05-31T11:24:53.895Z,60.28
2018-05-31T11:25:53.839Z,58.56
2018-05-31T11:26:53.856Z,58.97
2018-05-31T11:27:53.938Z,59.74
2018-05-31T11:28:53.882Z,59.23
2018-05-31T11:29:53.900Z,58.01
2018-05-31T11:30:54.066Z,57.92
2018-05-31T11:31:53.954Z,56.29
2018-05-31T11:32:53.941Z,55.64
2018-05-31T11:33:53.966Z,54.97
2018-05-31T11:34:53.998Z,54.88
2018-05-31T11:35:54.136Z,54.30
2018-05-31T11:36:54.012Z,54.21
2018-05-31T11:37:54.046Z,54.42
2018-05-31T11:38:54.078Z,54.23
2018-05-31T11:39:54.061Z,53.17
2018-05-31T11:40:54.064Z,52.89
2018-05-31T11:41:54.086Z,51.76
2018-05-31T11:42:54.123Z,50.70
2018-05-31T11:43:54.108Z,50.32
2018-05-31T11:44:54.145Z,49.84
2018-05-31T11:45:54.239Z,49.38
2018-05-31T11:46:54.152Z,50.23
2018-05-31T11:47:54.220Z,50.13
2018-05-31T11:48:54.193Z,50.42
2018-05-31T11:49:54.221Z,51.09
2018-05-31T11:50:54.232Z,51.47
2018-05-31T11:51:54.240Z,51.57
2018-05-31T11:52:54.268Z,51.31
2018-05-31T11:53:54.272Z,50.99
2018-05-31T11:54:54.335Z,50.92
2018-05-31T11:55:54.336Z,49.87
2018-05-31T11:56:54.375Z,49.29
2018-05-31T11:57:54.367Z,50.15
2018-05-31T11:58:54.376Z,49.41
2018-05-31T11:59:54.445Z,49.41
2018-05-31T12:00:54.391Z,48.45
2018-05-31T12:01:54.454Z,47.49
2018-05-31T12:02:54.437Z,47.30
2018-05-31T12:03:54.469Z,46.93
2018-05-31T12:04:54.505Z,46.26
2018-05-31T12:05:54.653Z,46.55
2018-05-31T12:06:54.512Z,46.64
2018-05-31T12:07:54.517Z,46.55
2018-05-31T12:08:54.534Z,46.64
2018-05-31T12:09:54.575Z,46.84
2018-05-31T12:10:54.809Z,46.55
2018-05-31T12:11:54.587Z,45.87
2018-05-31T12:12:54.660Z,45.49
2018-05-31T12:13:54.630Z,44.84
2018-05-31T12:14:54.640Z,44.93
2018-05-31T12:15:54.731Z,43.41
2018-05-31T12:16:54.852Z,42.65
2018-05-31T12:17:54.692Z,42.55
2018-05-31T12:18:54.725Z,42.46
2018-05-31T12:19:54.734Z,42.26
2018-05-31T12:20:54.747Z,42.09
2018-05-31T12:21:54.946Z,41.99
2018-05-31T12:22:54.830Z,42.07
2018-05-31T12:23:54.807Z,42.76
2018-05-31T12:24:54.899Z,42.28
2018-05-31T12:25:54.870Z,41.05
2018-05-31T12:26:54.862Z,40.47
2018-05-31T12:27:54.885Z,39.79
2018-05-31T12:28:54.929Z,39.99
2018-05-31T12:29:54.949Z,39.51
2018-05-31T12:30:54.986Z,38.46
2018-05-31T12:31:55.138Z,37.89
2018-05-31T12:32:55.055Z,37.91
2018-05-31T12:33:55.059Z,37.13
2018-05-31T12:34:55.025Z,37.13
2018-05-31T12:35:55.118Z,36.07
2018-05-31T12:36:55.213Z,36.36
2018-05-31T12:37:55.139Z,36.75
2018-05-31T12:38:55.102Z,35.69
2018-05-31T12:39:55.152Z,35.50
2018-05-31T12:40:55.145Z,35.78
2018-05-31T12:41:55.347Z,35.50
2018-05-31T12:42:55.209Z,34.72
2018-05-31T12:43:55.248Z,34.92
2018-05-31T12:44:55.230Z,33.37
2018-05-31T12:45:55.245Z,32.71
2018-05-31T12:46:55.394Z,34.26
2018-05-31T12:47:55.316Z,34.16
2018-05-31T12:48:55.333Z,32.62
2018-05-31T12:49:55.328Z,31.75
2018-05-31T12:50:55.352Z,31.76
2018-05-31T12:51:55.548Z,31.38
2018-05-31T12:52:55.420Z,31.10